Time;durP1;ratioP1;P1;durP2;ratioP2;P2;SDS_P1;SDS_P2;PMS_P1;PMS_P2;Temp;Humidity;BMP_temperature;BMP_pressure;BME280_temperature;BME280_humidity;BME280_pressure;Samples;Min_cycle;Max_cycle;Signal;HPM_P1;HPM_P2
2021/07/11 00:01:47;;;;;;;11.60;2.70;;;21.70;99.90;;;;;;5070911;28;20028;-69
2021/07/11 00:04:13;;;;;;;7.43;2.80;;;21.70;99.90;;;;;;5071539;28;20102;-68
2021/07/11 00:06:38;;;;;;;6.68;3.00;;;21.70;99.90;;;;;;5070348;28;20029;-68
2021/07/11 00:09:06;;;;;;;10.77;2.30;;;21.70;99.90;;;;;;5072214;28;20025;-68
2021/07/11 00:11:32;;;;;;;5.10;2.67;;;21.60;99.90;;;;;;5071371;28;20500;-64
2021/07/11 00:14:02;;;;;;;8.50;2.40;;;21.70;99.90;;;;;;5071431;28;20042;-69
2021/07/11 00:16:28;;;;;;;3.50;2.47;;;21.70;99.90;;;;;;5069910;28;20037;-68
2021/07/11 00:18:55;;;;;;;4.68;2.65;;;21.70;99.90;;;;;;5071292;28;20025;-64
2021/07/11 00:21:21;;;;;;;7.10;2.92;;;21.70;99.90;;;;;;5071285;28;20091;-68
2021/07/11 00:23:48;;;;;;;3.30;2.33;;;21.70;99.90;;;;;;5071549;28;20112;-67
2021/07/11 00:26:13;;;;;;;2.95;2.20;;;21.70;99.90;;;;;;5071169;28;20041;-68
2021/07/11 00:28:39;;;;;;;5.65;2.70;;;21.70;99.90;;;;;;5071005;28;20077;-66
2021/07/11 00:31:05;;;;;;;4.78;2.67;;;21.70;99.90;;;;;;5070271;28;20115;-67
2021/07/11 00:33:30;;;;;;;5.78;2.88;;;21.70;99.90;;;;;;5071073;28;20121;-68
2021/07/11 00:35:56;;;;;;;4.80;2.63;;;21.70;99.90;;;;;;5071508;28;20024;-67
2021/07/11 00:38:22;;;;;;;7.78;3.00;;;21.70;99.90;;;;;;5071132;28;20445;-67
2021/07/11 00:40:48;;;;;;;4.60;2.20;;;21.70;99.90;;;;;;5071263;28;20492;-67
2021/07/11 00:43:14;;;;;;;5.47;2.45;;;21.70;99.90;;;;;;5069852;28;20050;-64
2021/07/11 00:45:40;;;;;;;4.25;2.63;;;21.70;99.90;;;;;;5071355;28;20086;-64
2021/07/11 00:48:06;;;;;;;3.63;2.47;;;21.60;99.90;;;;;;5071549;28;20419;-67
2021/07/11 00:50:32;;;;;;;4.65;2.70;;;21.70;99.90;;;;;;5071067;28;20400;-64
2021/07/11 00:52:58;;;;;;;3.67;2.55;;;21.70;99.90;;;;;;5071414;28;20028;-64
2021/07/11 00:55:23;;;;;;;4.13;2.30;;;21.60;99.90;;;;;;5070110;28;20103;-67
2021/07/11 00:57:50;;;;;;;4.22;2.55;;;21.70;99.90;;;;;;5071213;28;20041;-67
2021/07/11 01:00:17;;;;;;;4.53;2.83;;;21.60;99.90;;;;;;5070998;28;20025;-68
2021/07/11 01:02:56;;;;;;;3.50;2.60;;;21.70;99.90;;;;;;5070883;28;20445;-68
2021/07/11 01:05:24;;;;;;;4.05;2.58;;;21.70;99.90;;;;;;5070662;28;20507;-66
2021/07/11 01:07:53;;;;;;;4.13;2.70;;;21.70;99.90;;;;;;5071083;28;20440;-69
2021/07/11 01:10:35;;;;;;;3.55;2.50;;;21.70;99.90;;;;;;5070880;28;20035;-70
2021/07/11 01:13:02;;;;;;;3.15;2.45;;;21.70;99.90;;;;;;5070865;28;20028;-65
2021/07/11 01:15:29;;;;;;;5.43;2.58;;;21.70;99.90;;;;;;5070810;28;20066;-66
2021/07/11 01:17:59;;;;;;;5.05;2.70;;;21.60;99.90;;;;;;5070971;28;20024;-68
2021/07/11 01:20:40;;;;;;;4.85;2.42;;;21.70;99.90;;;;;;5070753;28;20065;-68
2021/07/11 01:23:12;;;;;;;3.20;2.28;;;21.70;99.90;;;;;;5071407;28;20025;-67
2021/07/11 01:25:47;;;;;;;4.55;2.42;;;21.70;99.90;;;;;;5071021;28;20032;-66
2021/07/11 01:28:18;;;;;;;4.97;2.72;;;21.60;99.90;;;;;;5071452;28;20493;-69
2021/07/11 01:30:45;;;;;;;5.05;2.80;;;21.70;99.90;;;;;;5074677;28;20392;-68
2021/07/11 01:33:13;;;;;;;3.72;2.45;;;21.70;99.90;;;;;;5072934;28;20048;-68
2021/07/11 01:35:40;;;;;;;5.43;2.78;;;21.70;99.90;;;;;;5074465;28;20024;-67
2021/07/11 01:38:08;;;;;;;4.00;2.75;;;21.60;99.90;;;;;;5074858;28;20024;-69
2021/07/11 01:40:35;;;;;;;3.15;2.45;;;21.70;99.90;;;;;;5074683;28;20025;-67
2021/07/11 01:43:01;;;;;;;3.92;2.58;;;21.60;99.90;;;;;;5074333;28;20380;-65
2021/07/11 01:45:28;;;;;;;5.20;2.50;;;21.60;99.90;;;;;;5073980;28;20499;-66
2021/07/11 01:47:54;;;;;;;4.82;2.50;;;21.70;99.90;;;;;;5073871;28;20031;-68
2021/07/11 01:50:22;;;;;;;4.90;2.58;;;21.60;99.90;;;;;;5073725;28;20488;-65
2021/07/11 01:52:48;;;;;;;4.60;2.75;;;21.70;99.90;;;;;;5074214;28;20028;-70
2021/07/11 01:55:14;;;;;;;4.22;2.13;;;21.60;99.90;;;;;;5072169;28;20103;-69
2021/07/11 01:57:40;;;;;;;4.40;2.40;;;21.70;99.90;;;;;;5074094;28;20099;-68
2021/07/11 02:00:13;;;;;;;12.18;2.63;;;21.60;99.90;;;;;;5074581;28;20477;-68
2021/07/11 02:02:39;;;;;;;4.97;2.47;;;21.60;99.90;;;;;;5073963;28;20017;-67
2021/07/11 02:05:10;;;;;;;5.93;2.63;;;21.60;99.90;;;;;;5072805;28;20028;-68
2021/07/11 02:07:36;;;;;;;4.60;2.30;;;21.60;99.90;;;;;;5074171;28;20024;-69
2021/07/11 02:10:06;;;;;;;4.70;2.30;;;21.60;99.90;;;;;;5073936;28;20384;-68
2021/07/11 02:12:34;;;;;;;8.38;2.50;;;21.60;99.90;;;;;;5073345;28;20025;-69
2021/07/11 02:15:05;;;;;;;4.03;2.20;;;21.60;99.90;;;;;;5073674;28;20103;-65
2021/07/11 02:17:31;;;;;;;4.18;2.60;;;21.60;99.90;;;;;;5071898;28;20021;-69
2021/07/11 02:20:01;;;;;;;3.47;2.50;;;21.60;99.90;;;;;;5074015;28;20024;-69
2021/07/11 02:22:28;;;;;;;4.97;2.45;;;21.60;99.90;;;;;;5073404;28;20056;-69
2021/07/11 02:24:55;;;;;;;4.00;2.30;;;21.60;99.90;;;;;;5072297;28;20496;-65
2021/07/11 02:27:21;;;;;;;3.45;2.30;;;21.60;99.90;;;;;;5073076;28;20123;-69
2021/07/11 02:29:51;;;;;;;3.60;2.45;;;21.60;99.90;;;;;;5073426;28;20108;-68
2021/07/11 02:32:18;;;;;;;2.83;2.28;;;21.60;99.90;;;;;;5073310;28;20445;-68
2021/07/11 02:34:44;;;;;;;5.35;2.47;;;21.60;99.90;;;;;;5073210;28;20067;-67
2021/07/11 02:37:16;;;;;;;5.05;2.70;;;21.60;99.90;;;;;;5073056;28;20020;-67
2021/07/11 02:39:45;;;;;;;4.22;2.17;;;21.60;99.90;;;;;;5073023;28;20020;-68
2021/07/11 02:42:13;;;;;;;3.42;2.22;;;21.50;99.90;;;;;;5072758;28;20020;-65
2021/07/11 02:44:44;;;;;;;3.20;2.15;;;21.60;99.90;;;;;;5073135;28;20028;-66
2021/07/11 02:47:13;;;;;;;4.78;2.42;;;21.50;99.90;;;;;;5073073;28;20021;-69
2021/07/11 02:49:43;;;;;;;3.60;2.55;;;21.50;99.90;;;;;;5073143;28;20025;-67
2021/07/11 02:52:10;;;;;;;3.90;2.28;;;21.50;99.90;;;;;;5072937;28;20178;-64
2021/07/11 02:54:48;;;;;;;3.53;2.22;;;21.50;99.90;;;;;;5073105;28;20099;-68
2021/07/11 02:57:19;;;;;;;3.40;2.33;;;21.50;99.90;;;;;;5072835;28;20032;-68
2021/07/11 02:59:47;;;;;;;5.93;1.95;;;21.50;99.90;;;;;;5072981;28;20059;-64
2021/07/11 03:02:14;;;;;;;2.50;2.20;;;21.50;99.90;;;;;;5072635;28;20113;-66
2021/07/11 03:04:42;;;;;;;3.80;2.45;;;21.60;99.90;;;;;;5072736;28;20107;-64
2021/07/11 03:07:08;;;;;;;5.28;2.22;;;21.50;99.90;;;;;;5072853;28;20037;-64
2021/07/11 03:09:34;;;;;;;4.25;2.13;;;21.50;99.90;;;;;;5071678;28;20372;-66
2021/07/11 03:12:01;;;;;;;3.22;2.40;;;21.50;99.90;;;;;;5072492;28;20124;-65
2021/07/11 03:14:28;;;;;;;3.88;2.38;;;21.50;99.90;;;;;;5071043;28;20035;-64
2021/07/11 03:16:56;;;;;;;3.70;2.40;;;21.50;99.90;;;;;;5072624;28;20094;-67
2021/07/11 03:19:25;;;;;;;5.25;2.42;;;21.50;99.90;;;;;;5072190;28;20479;-65
2021/07/11 03:21:51;;;;;;;6.97;2.45;;;21.50;99.90;;;;;;5072384;28;20468;-68
2021/07/11 03:24:28;;;;;;;3.22;2.05;;;21.50;99.90;;;;;;5071981;28;20043;-65
2021/07/11 03:26:55;;;;;;;4.55;2.15;;;21.50;99.90;;;;;;5072379;28;20094;-67
2021/07/11 03:29:34;;;;;;;2.97;1.95;;;21.40;99.90;;;;;;5071919;28;20063;-63
2021/07/11 03:32:03;;;;;;;3.15;2.10;;;21.40;99.90;;;;;;5072215;28;20107;-66
2021/07/11 03:34:31;;;;;;;3.60;2.25;;;21.40;99.90;;;;;;5071835;28;20023;-68
2021/07/11 03:37:07;;;;;;;2.70;2.30;;;21.40;99.90;;;;;;5072171;28;20028;-68
2021/07/11 03:39:39;;;;;;;3.30;2.15;;;21.50;99.90;;;;;;5071482;28;20027;-68
2021/07/11 03:42:08;;;;;;;4.47;2.10;;;21.40;99.90;;;;;;5072212;28;20032;-69
2021/07/11 03:44:35;;;;;;;3.28;2.05;;;21.40;99.90;;;;;;5072255;28;20020;-66
2021/07/11 03:47:04;;;;;;;2.70;2.10;;;21.40;99.90;;;;;;5071934;28;20057;-66
2021/07/11 03:49:31;;;;;;;3.17;2.08;;;21.40;99.90;;;;;;5071744;28;20019;-67
2021/07/11 03:52:07;;;;;;;3.85;2.10;;;21.40;99.90;;;;;;5070960;28;20020;-66
2021/07/11 03:54:36;;;;;;;3.67;2.13;;;21.40;99.90;;;;;;5071850;28;20036;-66
2021/07/11 03:57:03;;;;;;;4.18;2.08;;;21.40;99.90;;;;;;5071660;28;20021;-67
2021/07/11 03:59:31;;;;;;;4.20;2.08;;;21.40;99.90;;;;;;5070189;28;20036;-66
2021/07/11 04:01:57;;;;;;;4.18;1.95;;;21.40;99.90;;;;;;5071539;28;20372;-67
2021/07/11 04:04:26;;;;;;;4.28;2.03;;;21.40;99.90;;;;;;5071409;28;20487;-67
2021/07/11 04:06:53;;;;;;;5.85;2.13;;;21.40;99.90;;;;;;5071757;28;20388;-67
2021/07/11 04:09:21;;;;;;;2.53;1.90;;;21.40;99.90;;;;;;5070045;28;20021;-68
2021/07/11 04:11:47;;;;;;;6.82;2.00;;;21.30;99.90;;;;;;5071538;28;20052;-68
2021/07/11 04:14:20;;;;;;;3.85;1.80;;;21.30;99.90;;;;;;5071291;28;20036;-68
2021/07/11 04:16:51;;;;;;;2.53;1.93;;;21.30;99.90;;;;;;5071585;28;20028;-66
2021/07/11 04:19:24;;;;;;;5.57;2.17;;;21.30;99.90;;;;;;5071350;28;20013;-66
2021/07/11 04:21:52;;;;;;;3.53;1.90;;;21.30;99.90;;;;;;5071553;28;20025;-69
2021/07/11 04:24:19;;;;;;;3.15;2.20;;;21.30;99.90;;;;;;5071022;28;20108;-68
2021/07/11 04:26:45;;;;;;;3.92;2.22;;;21.30;99.90;;;;;;5071462;28;20039;-64
2021/07/11 04:29:12;;;;;;;3.88;1.92;;;21.30;99.90;;;;;;5071202;28;20024;-66
2021/07/11 04:31:38;;;;;;;5.22;2.05;;;21.30;99.90;;;;;;5071514;28;20457;-65
2021/07/11 04:34:26;;;;;;;3.72;1.88;;;21.30;99.90;;;;;;5071509;28;20035;-67
2021/07/11 04:36:53;;;;;;;2.53;2.20;;;21.30;99.90;;;;;;5071324;28;20025;-67
2021/07/11 04:39:20;;;;;;;2.60;1.88;;;21.30;99.90;;;;;;5071171;28;20060;-67
2021/07/11 04:41:46;;;;;;;9.63;2.40;;;21.30;99.90;;;;;;5071208;28;20103;-67
2021/07/11 04:44:12;;;;;;;3.38;2.10;;;21.30;99.90;;;;;;5071028;28;20055;-67
2021/07/11 04:46:38;;;;;;;2.90;1.80;;;21.30;99.90;;;;;;5071291;28;20401;-67
2021/07/11 04:49:04;;;;;;;2.90;1.98;;;21.30;99.90;;;;;;5071422;28;20021;-68
2021/07/11 04:51:31;;;;;;;3.45;2.00;;;21.30;99.90;;;;;;5070983;28;20027;-70
2021/07/11 04:53:56;;;;;;;3.03;2.28;;;21.30;99.90;;;;;;5071262;28;20077;-69
2021/07/11 04:56:22;;;;;;;5.78;2.30;;;21.30;99.90;;;;;;5071002;28;20100;-69
2021/07/11 04:58:47;;;;;;;3.78;2.22;;;21.30;99.90;;;;;;5071061;28;20021;-69
2021/07/11 05:01:13;;;;;;;5.32;2.60;;;21.30;99.90;;;;;;5070479;28;20028;-70
2021/07/11 05:03:39;;;;;;;3.00;2.17;;;21.30;99.90;;;;;;5071219;28;20415;-68
2021/07/11 05:06:04;;;;;;;2.85;2.17;;;21.30;99.90;;;;;;5075299;28;20138;-69
2021/07/11 05:08:30;;;;;;;3.33;1.92;;;21.30;99.90;;;;;;5074841;28;20052;-69
2021/07/11 05:10:56;;;;;;;4.55;2.10;;;21.30;99.90;;;;;;5075018;28;20025;-68
2021/07/11 05:13:21;;;;;;;4.57;2.08;;;21.30;99.90;;;;;;5074626;28;20036;-64
2021/07/11 05:15:47;;;;;;;7.80;2.40;;;21.40;99.90;;;;;;5074877;28;20157;-68
2021/07/11 05:18:12;;;;;;;4.78;2.03;;;21.40;99.90;;;;;;5074639;28;20063;-66
2021/07/11 05:20:38;;;;;;;5.97;2.08;;;21.40;99.90;;;;;;5074753;28;20028;-65
2021/07/11 05:23:04;;;;;;;4.55;2.10;;;21.40;99.90;;;;;;5075243;28;20040;-67
2021/07/11 05:25:33;;;;;;;2.75;1.95;;;21.40;99.90;;;;;;5074485;28;20458;-67
2021/07/11 05:28:03;;;;;;;4.93;2.00;;;21.40;99.90;;;;;;5074591;28;20029;-65
2021/07/11 05:30:29;;;;;;;5.93;2.28;;;21.40;99.90;;;;;;5074427;28;20445;-64
2021/07/11 05:32:55;;;;;;;2.83;1.95;;;21.40;99.90;;;;;;5074194;28;20048;-65
2021/07/11 05:35:21;;;;;;;2.92;1.70;;;21.40;99.90;;;;;;5073979;28;20039;-67
2021/07/11 05:37:47;;;;;;;3.13;1.80;;;21.40;99.90;;;;;;5072821;28;20021;-67
2021/07/11 05:40:15;;;;;;;5.13;2.10;;;21.40;99.90;;;;;;5074319;28;20077;-66
2021/07/11 05:42:42;;;;;;;3.40;2.10;;;21.40;99.90;;;;;;5074315;28;20024;-68
2021/07/11 05:45:09;;;;;;;4.30;1.95;;;21.40;99.90;;;;;;5074419;28;20517;-66
2021/07/11 05:47:34;;;;;;;4.43;2.28;;;21.40;99.90;;;;;;5074557;28;20032;-68
2021/07/11 05:50:00;;;;;;;3.15;1.75;;;21.40;99.90;;;;;;5074314;28;20024;-68
2021/07/11 05:52:26;;;;;;;2.42;2.00;;;21.40;99.90;;;;;;5074025;28;20380;-68
2021/07/11 05:54:52;;;;;;;3.53;1.67;;;21.50;99.90;;;;;;5074339;28;20165;-68
2021/07/11 05:57:18;;;;;;;4.57;2.13;;;21.60;99.90;;;;;;5073948;28;20473;-68
2021/07/11 05:59:44;;;;;;;3.38;1.70;;;21.60;99.90;;;;;;5074247;28;20033;-68
2021/07/11 06:02:10;;;;;;;3.47;2.15;;;21.60;99.90;;;;;;5072542;28;20020;-68
2021/07/11 06:04:36;;;;;;;6.22;2.22;;;21.70;99.90;;;;;;5074295;28;20376;-68
2021/07/11 06:07:02;;;;;;;3.00;1.83;;;21.80;99.90;;;;;;5073996;28;20020;-70
2021/07/11 06:09:27;;;;;;;4.93;1.63;;;21.90;99.90;;;;;;5073705;28;20418;-68
2021/07/11 06:11:53;;;;;;;5.72;2.03;;;22.00;99.90;;;;;;5073926;28;20071;-68
2021/07/11 06:14:19;;;;;;;3.75;1.90;;;22.10;99.90;;;;;;5073052;28;20028;-69
2021/07/11 06:16:45;;;;;;;3.45;1.88;;;22.10;99.90;;;;;;5073204;28;20127;-68
2021/07/11 06:19:12;;;;;;;4.60;1.83;;;22.10;99.90;;;;;;5073590;28;20436;-68
2021/07/11 06:21:38;;;;;;;3.00;1.83;;;22.20;99.90;;;;;;5073981;28;20056;-66
2021/07/11 06:24:04;;;;;;;2.97;1.67;;;22.20;99.90;;;;;;5073982;28;20071;-67
2021/07/11 06:26:29;;;;;;;4.07;1.77;;;22.30;99.90;;;;;;5073321;28;20033;-68
2021/07/11 06:28:55;;;;;;;3.20;2.08;;;22.30;99.90;;;;;;5073618;28;20024;-67
2021/07/11 06:31:21;;;;;;;3.80;1.75;;;22.30;99.90;;;;;;5073360;28;20029;-67
2021/07/11 06:33:46;;;;;;;3.13;1.65;;;22.40;99.90;;;;;;5073314;28;20017;-67
2021/07/11 06:36:12;;;;;;;3.33;2.08;;;22.40;99.90;;;;;;5073156;28;20028;-66
2021/07/11 06:38:38;;;;;;;4.30;1.90;;;22.50;99.90;;;;;;5072812;28;20032;-66
2021/07/11 06:41:03;;;;;;;2.75;1.90;;;22.60;99.90;;;;;;5072312;28;20034;-69
2021/07/11 06:43:29;;;;;;;8.68;2.80;;;22.40;99.90;;;;;;5072378;28;20361;-66
2021/07/11 06:45:55;;;;;;;9.35;4.55;;;22.30;99.90;;;;;;5072770;28;20040;-66
2021/07/11 06:48:20;;;;;;;6.47;4.05;;;22.30;99.90;;;;;;5072707;28;20029;-65
2021/07/11 06:50:46;;;;;;;5.35;4.00;;;22.40;99.90;;;;;;5072804;28;20048;-66
2021/07/11 06:53:12;;;;;;;8.63;5.35;;;22.30;99.90;;;;;;5072375;28;20027;-68
2021/07/11 06:55:38;;;;;;;8.98;5.80;;;22.10;99.90;;;;;;5072983;28;20020;-67
2021/07/11 06:58:03;;;;;;;7.60;5.93;;;22.10;99.90;;;;;;5071670;28;20059;-67
2021/07/11 07:00:29;;;;;;;10.50;6.90;;;22.00;99.90;;;;;;5072042;28;20028;-66
2021/07/11 07:02:55;;;;;;;9.35;7.43;;;22.00;99.90;;;;;;5072562;28;20078;-67
2021/07/11 07:05:21;;;;;;;10.32;8.10;;;21.80;99.90;;;;;;5072433;28;20044;-65
2021/07/11 07:07:47;;;;;;;9.95;8.05;;;21.70;99.90;;;;;;5079495;28;20103;-66
2021/07/11 07:10:14;;;;;;;10.30;8.00;;;21.80;99.90;;;;;;5071166;28;20067;-68
2021/07/11 07:12:44;;;;;;;10.10;7.63;;;21.80;99.90;;;;;;5072631;28;20024;-67
2021/07/11 07:15:11;;;;;;;11.13;7.60;;;21.80;99.90;;;;;;5072498;28;20070;-65
2021/07/11 07:17:38;;;;;;;10.75;7.50;;;21.70;99.90;;;;;;5074112;28;20348;-67
2021/07/11 07:20:06;;;;;;;9.13;7.82;;;21.70;99.90;;;;;;5072989;28;20039;-67
2021/07/11 07:22:36;;;;;;;9.23;7.93;;;21.40;99.90;;;;;;5072359;28;20077;-64
2021/07/11 07:25:07;;;;;;;8.90;7.70;;;21.40;99.90;;;;;;5072249;28;20119;-64
2021/07/11 07:27:32;;;;;;;8.63;7.10;;;21.30;99.90;;;;;;5072692;28;20127;-63
2021/07/11 07:29:58;;;;;;;8.57;7.10;;;21.10;99.90;;;;;;5072271;28;20151;-63
2021/07/11 07:32:24;;;;;;;9.13;7.15;;;21.00;99.90;;;;;;5071961;28;20036;-64
2021/07/11 07:34:49;;;;;;;7.78;6.10;;;21.00;99.90;;;;;;5071793;28;20386;-63
2021/07/11 07:37:15;;;;;;;7.50;5.50;;;20.70;99.90;;;;;;5071476;28;20016;-64
2021/07/11 07:39:41;;;;;;;14.52;5.05;;;20.60;99.90;;;;;;5075889;28;20040;-72
2021/07/11 07:42:08;;;;;;;10.50;4.55;;;20.80;99.90;;;;;;5052808;28;20029;-64
2021/07/11 07:44:33;;;;;;;9.13;4.47;;;20.90;99.90;;;;;;5071726;28;20119;-63
2021/07/11 07:47:00;;;;;;;5.65;4.13;;;21.00;99.90;;;;;;5055014;28;20096;-63
2021/07/11 07:49:26;;;;;;;4.60;3.55;;;21.10;99.90;;;;;;5061571;28;20029;-63
2021/07/11 07:51:51;;;;;;;5.03;3.47;;;21.10;99.90;;;;;;5072480;28;20078;-63
2021/07/11 07:54:17;;;;;;;5.20;3.40;;;21.10;99.90;;;;;;5078553;28;20024;-63
2021/07/11 07:56:43;;;;;;;6.50;3.47;;;21.10;99.90;;;;;;5077534;28;20085;-63
2021/07/11 07:59:09;;;;;;;8.10;3.05;;;21.10;99.90;;;;;;5080170;28;20028;-67
2021/07/11 08:01:34;;;;;;;8.82;3.28;;;21.10;99.90;;;;;;5071457;28;20145;-67
2021/07/11 08:04:03;;;;;;;4.00;2.70;;;21.10;99.90;;;;;;5080920;28;20039;-67
2021/07/11 08:06:29;;;;;;;7.25;2.72;;;21.10;99.90;;;;;;5070756;28;20054;-68
2021/07/11 08:08:55;;;;;;;2.97;2.20;;;21.10;99.90;;;;;;5072361;28;20020;-67
2021/07/11 08:11:21;;;;;;;6.03;2.50;;;21.10;99.90;;;;;;5069619;28;20028;-67
2021/07/11 08:13:46;;;;;;;4.47;2.67;;;21.10;99.90;;;;;;5071361;28;20036;-65
2021/07/11 08:16:12;;;;;;;4.60;2.20;;;21.10;99.90;;;;;;5070889;28;20074;-66
2021/07/11 08:18:38;;;;;;;4.53;2.47;;;21.10;99.90;;;;;;5072429;28;20016;-67
2021/07/11 08:21:03;;;;;;;2.33;2.00;;;21.10;99.90;;;;;;5071280;28;20028;-67
2021/07/11 08:23:29;;;;;;;5.43;2.25;;;21.10;99.90;;;;;;5070864;28;20372;-67
2021/07/11 08:25:55;;;;;;;3.50;2.47;;;21.20;99.90;;;;;;5079398;28;20032;-67
2021/07/11 08:28:21;;;;;;;4.05;1.98;;;21.20;99.90;;;;;;5075827;28;20031;-67
2021/07/11 08:30:46;;;;;;;3.88;2.00;;;21.20;99.90;;;;;;5070964;28;20021;-66
2021/07/11 08:33:12;;;;;;;3.50;2.00;;;21.20;99.90;;;;;;5070781;28;20031;-67
2021/07/11 08:35:38;;;;;;;2.75;1.90;;;21.20;99.90;;;;;;5071961;28;20074;-66
2021/07/11 08:38:03;;;;;;;2.97;1.90;;;21.20;99.90;;;;;;5070903;28;20029;-67
2021/07/11 08:40:32;;;;;;;6.05;2.42;;;21.20;99.90;;;;;;5074439;28;20485;-68
2021/07/11 08:43:00;;;;;;;3.95;2.03;;;21.20;99.90;;;;;;5070816;28;20039;-68
2021/07/11 08:45:27;;;;;;;3.63;2.05;;;21.30;99.90;;;;;;5079893;28;20124;-67
2021/07/11 08:47:52;;;;;;;2.92;2.00;;;21.30;99.90;;;;;;5070984;28;20048;-68
2021/07/11 08:50:18;;;;;;;2.50;1.70;;;21.40;99.90;;;;;;5075909;28;20519;-67
2021/07/11 08:52:46;;;;;;;3.97;1.90;;;21.40;99.90;;;;;;5071830;28;20028;-67
2021/07/11 08:55:19;;;;;;;5.43;1.73;;;21.40;99.90;;;;;;5070524;28;20109;-68
2021/07/11 08:57:49;;;;;;;;;;;21.40;99.90;;;;;;5070952;28;20542;-67
2021/07/11 09:00:15;;;;;;;2.55;1.55;;;21.40;99.90;;;;;;5071587;28;19914;-67
2021/07/11 09:02:41;;;;;;;3.70;1.70;;;21.40;99.90;;;;;;5070947;28;20108;-67
2021/07/11 09:05:19;;;;;;;2.40;1.83;;;21.40;99.90;;;;;;5070735;28;20119;-65
2021/07/11 09:08:01;;;;;;;2.78;1.85;;;21.40;99.90;;;;;;5071615;28;20036;-67
2021/07/11 09:10:57;;;;;;;2.38;1.80;;;21.40;99.90;;;;;;5070430;28;20071;-66
2021/07/11 09:13:28;;;;;;;1.98;1.55;;;21.40;99.90;;;;;;5058606;28;20044;-66
2021/07/11 09:15:56;;;;;;;3.28;1.80;;;21.40;99.90;;;;;;5073565;28;20037;-67
2021/07/11 09:18:25;;;;;;;2.90;1.80;;;21.50;99.90;;;;;;5068786;28;20453;-66
2021/07/11 09:20:52;;;;;;;3.03;1.90;;;21.50;99.90;;;;;;5070415;28;20013;-66
2021/07/11 09:23:18;;;;;;;3.33;1.85;;;21.50;99.90;;;;;;5070359;28;20029;-68
2021/07/11 09:25:55;;;;;;;3.90;2.10;;;21.50;99.90;;;;;;5070465;28;20078;-66
2021/07/11 09:28:20;;;;;;;3.38;1.88;;;21.50;99.90;;;;;;5070406;28;20365;-65
2021/07/11 09:30:46;;;;;;;4.45;1.98;;;21.40;99.90;;;;;;5070408;28;20031;-66
2021/07/11 09:33:18;;;;;;;2.55;1.90;;;21.50;99.90;;;;;;5070208;28;20016;-66
2021/07/11 09:35:43;;;;;;;2.63;1.83;;;21.50;99.90;;;;;;5070251;28;20082;-67
2021/07/11 09:38:10;;;;;;;2.40;2.00;;;21.50;99.90;;;;;;5070153;28;20017;-65
2021/07/11 09:40:39;;;;;;;3.95;1.95;;;21.50;99.90;;;;;;5070961;28;20028;-66
2021/07/11 09:43:12;;;;;;;3.63;1.98;;;21.50;99.90;;;;;;5070432;28;20013;-67
2021/07/11 09:45:38;;;;;;;3.43;2.03;;;21.50;99.90;;;;;;5070362;28;20040;-65
2021/07/11 09:48:06;;;;;;;3.45;1.92;;;21.50;99.90;;;;;;5070600;28;20032;-67
2021/07/11 09:50:32;;;;;;;2.78;1.83;;;21.50;99.90;;;;;;5071180;28;20020;-65
2021/07/11 09:52:59;;;;;;;3.80;2.30;;;21.50;99.90;;;;;;5073642;28;20377;-65
2021/07/11 09:55:27;;;;;;;4.47;2.00;;;21.50;99.90;;;;;;5073412;28;20372;-65
2021/07/11 09:57:56;;;;;;;3.17;2.20;;;21.50;99.90;;;;;;5072181;28;20116;-65
2021/07/11 10:00:28;;;;;;;6.05;2.47;;;21.60;99.90;;;;;;5072853;28;20146;-66
2021/07/11 10:02:59;;;;;;;3.47;2.45;;;21.60;99.90;;;;;;5073345;28;20032;-67
2021/07/11 10:05:26;;;;;;;2.90;2.10;;;21.60;99.90;;;;;;5081798;28;20525;-65
2021/07/11 10:07:53;;;;;;;3.83;2.00;;;21.60;99.90;;;;;;5083537;28;20047;-65
2021/07/11 10:10:22;;;;;;;3.28;2.00;;;21.60;99.90;;;;;;5073217;28;20376;-64
2021/07/11 10:12:49;;;;;;;2.80;1.67;;;21.60;99.90;;;;;;5073197;28;20036;-64
2021/07/11 10:15:18;;;;;;;2.70;1.92;;;21.60;99.90;;;;;;5073450;28;20032;-64
2021/07/11 10:17:52;;;;;;;3.53;2.00;;;21.60;99.90;;;;;;5073258;28;20024;-65
2021/07/11 10:20:20;;;;;;;2.30;1.83;;;21.70;99.90;;;;;;5073196;28;20040;-64
2021/07/11 10:22:49;;;;;;;2.88;2.10;;;21.70;99.90;;;;;;5076592;28;20039;-65
2021/07/11 10:25:20;;;;;;;3.22;2.20;;;21.70;99.90;;;;;;5083275;28;20064;-64
2021/07/11 10:27:46;;;;;;;4.10;1.60;;;21.60;99.90;;;;;;5073122;28;20448;-65
2021/07/11 10:30:13;;;;;;;3.03;2.50;;;21.60;99.90;;;;;;5071477;28;20358;-66
2021/07/11 10:32:39;;;;;;;4.80;2.78;;;21.70;99.90;;;;;;5072897;28;20128;-67
2021/07/11 10:35:16;;;;;;;3.63;2.42;;;21.70;99.90;;;;;;5084269;28;20120;-66
2021/07/11 10:38:02;;;;;;;2.78;2.15;;;21.70;99.90;;;;;;5078221;28;20082;-67
2021/07/11 10:40:33;;;;;;;3.50;2.28;;;21.70;99.90;;;;;;5072363;28;20068;-67
2021/07/11 10:42:59;;;;;;;2.47;2.05;;;21.70;99.90;;;;;;5073010;28;20028;-65
2021/07/11 10:45:25;;;;;;;4.25;2.30;;;21.80;99.90;;;;;;5074333;28;20033;-67
2021/07/11 10:47:51;;;;;;;2.47;1.90;;;21.80;99.90;;;;;;5072574;28;20031;-65
2021/07/11 10:50:31;;;;;;;2.45;2.00;;;21.80;99.90;;;;;;5072671;28;20056;-64
2021/07/11 10:52:58;;;;;;;5.05;2.17;;;21.80;99.90;;;;;;5072707;28;20029;-66
2021/07/11 10:55:33;;;;;;;2.72;2.00;;;21.80;99.90;;;;;;5072090;28;20028;-67
2021/07/11 10:58:10;;;;;;;2.53;1.80;;;21.80;99.90;;;;;;5072550;28;20082;-67
2021/07/11 11:00:36;;;;;;;2.55;2.08;;;21.80;99.90;;;;;;5072803;28;20025;-66
2021/07/11 11:03:25;;;;;;;3.00;1.83;;;21.90;99.90;;;;;;5072119;28;20085;-67
2021/07/11 11:05:52;;;;;;;4.05;2.20;;;21.90;99.90;;;;;;5072340;28;20055;-66
2021/07/11 11:08:21;;;;;;;3.60;1.80;;;21.90;99.90;;;;;;5072207;28;20512;-65
2021/07/11 11:10:48;;;;;;;2.35;1.90;;;22.00;99.90;;;;;;5080065;28;20511;-67
2021/07/11 11:13:17;;;;;;;2.63;2.10;;;22.00;99.90;;;;;;5061854;28;20028;-67
2021/07/11 11:15:59;;;;;;;2.22;1.83;;;22.00;99.90;;;;;;5071988;28;20020;-67
2021/07/11 11:18:31;;;;;;;4.15;2.00;;;22.00;99.90;;;;;;5071969;28;20012;-66
2021/07/11 11:21:05;;;;;;;2.80;1.95;;;22.10;99.90;;;;;;5071963;28;20115;-66
2021/07/11 11:23:37;;;;;;;4.63;1.85;;;22.10;99.90;;;;;;5070605;28;20028;-67
2021/07/11 11:26:03;;;;;;;2.50;1.90;;;22.10;99.90;;;;;;5068344;28;20039;-66
2021/07/11 11:28:30;;;;;;;2.33;1.80;;;22.10;99.90;;;;;;5073781;28;20066;-66
2021/07/11 11:31:32;;;;;;;3.20;1.95;;;22.10;99.90;;;;;;5070213;28;20020;-68
2021/07/11 11:34:04;;;;;;;3.53;1.75;;;22.10;99.90;;;;;;5067993;28;20044;-67
2021/07/11 11:36:37;;;;;;;2.65;2.30;;;22.10;99.90;;;;;;5069656;28;20021;-68
2021/07/11 11:39:20;;;;;;;2.33;1.70;;;22.10;99.90;;;;;;5071850;28;20028;-66
2021/07/11 11:41:46;;;;;;;3.00;1.85;;;22.10;99.90;;;;;;5071297;28;20362;-68
2021/07/11 11:44:22;;;;;;;2.17;1.83;;;22.10;99.90;;;;;;5071313;28;20536;-67
2021/07/11 11:46:50;;;;;;;2.47;1.88;;;22.10;99.90;;;;;;5071679;28;20419;-68
2021/07/11 11:49:19;;;;;;;2.00;1.80;;;22.10;99.90;;;;;;5072292;28;20048;-67
2021/07/11 11:51:56;;;;;;;3.35;1.90;;;22.10;99.90;;;;;;5072417;28;20020;-65
2021/07/11 11:54:26;;;;;;;4.05;1.63;;;22.20;99.90;;;;;;5071279;28;20075;-68
2021/07/11 11:56:53;;;;;;;2.75;1.90;;;22.20;99.90;;;;;;5071650;28;20058;-67
2021/07/11 11:59:19;;;;;;;2.25;2.00;;;22.20;99.90;;;;;;5071463;28;20408;-66
2021/07/11 12:01:44;;;;;;;2.28;2.08;;;22.20;99.90;;;;;;5077171;28;20028;-70
2021/07/11 12:04:13;;;;;;;3.53;1.80;;;22.20;99.90;;;;;;5072668;28;20484;-68
2021/07/11 12:06:40;;;;;;;2.03;1.83;;;22.30;99.90;;;;;;5088547;28;20040;-67
2021/07/11 12:09:06;;;;;;;3.55;2.15;;;22.30;99.90;;;;;;5091584;28;20464;-67
2021/07/11 12:11:33;;;;;;;2.15;1.80;;;22.30;99.90;;;;;;5079632;28;20353;-66
2021/07/11 12:14:09;;;;;;;2.45;1.92;;;22.30;99.90;;;;;;5088529;28;20039;-67
2021/07/11 12:16:34;;;;;;;2.30;1.83;;;22.30;99.90;;;;;;5091142;28;20016;-67
2021/07/11 12:19:04;;;;;;;3.10;2.10;;;22.30;99.90;;;;;;5084747;28;20020;-66
2021/07/11 12:21:30;;;;;;;2.47;1.88;;;22.40;99.90;;;;;;5074459;28;20071;-66
2021/07/11 12:24:00;;;;;;;3.40;2.00;;;22.30;99.90;;;;;;5078978;28;20149;-66
2021/07/11 12:26:27;;;;;;;3.22;2.10;;;22.30;99.90;;;;;;5078662;28;20499;-67
2021/07/11 12:28:54;;;;;;;2.08;1.88;;;22.40;99.90;;;;;;5071198;28;20032;-66
2021/07/11 12:31:22;;;;;;;3.25;2.10;;;22.40;99.90;;;;;;5074177;28;20028;-65
2021/07/11 12:34:15;;;;;;;2.50;2.00;;;22.40;99.90;;;;;;5073907;28;20094;-67
2021/07/11 12:36:57;;;;;;;2.13;1.93;;;22.30;99.90;;;;;;5069522;28;20385;-67
2021/07/11 12:39:25;;;;;;;2.50;2.13;;;22.40;99.90;;;;;;5088475;28;20028;-67
2021/07/11 12:41:51;;;;;;;1.77;1.67;;;22.40;99.90;;;;;;5079981;28;20116;-66
2021/07/11 12:44:18;;;;;;;2.53;2.00;;;22.30;99.90;;;;;;5072760;28;21716;-66
2021/07/11 12:46:45;;;;;;;2.10;1.73;;;22.30;99.90;;;;;;5074527;28;20091;-67
2021/07/11 12:49:13;;;;;;;1.73;1.60;;;22.30;99.90;;;;;;5070824;28;20031;-67
2021/07/11 12:51:53;;;;;;;2.00;1.80;;;22.40;99.90;;;;;;5070783;28;20138;-67